sensor_id;sensor_type;location;lat;lon;timestamp;P1;durP1;ratioP1;P2;durP2;ratioP2
32106;SDS011;18622;51.998;10.440;2022-08-20T07:00:29;5.93;;;2.40;;
32106;SDS011;18622;51.998;10.440;2022-08-20T07:02:58;3.77;;;3.00;;
32106;SDS011;18622;51.998;10.440;2022-08-20T07:05:27;7.63;;;2.90;;
32106;SDS011;18622;51.998;10.440;2022-08-20T07:07:57;6.17;;;2.02;;
32106;SDS011;18622;51.998;10.440;2022-08-20T07:10:25;2.83;;;2.58;;
32106;SDS011;18622;51.998;10.440;2022-08-20T07:12:55;7.25;;;2.85;;
32106;SDS011;18622;51.998;10.440;2022-08-20T07:15:25;3.90;;;2.50;;
32106;SDS011;18622;51.998;10.440;2022-08-20T07:17:54;3.50;;;2.60;;
32106;SDS011;18622;51.998;10.440;2022-08-20T07:20:23;4.92;;;2.87;;
32106;SDS011;18622;51.998;10.440;2022-08-20T07:22:52;4.67;;;2.80;;
32106;SDS011;18622;51.998;10.440;2022-08-20T07:25:21;8.60;;;3.40;;
32106;SDS011;18622;51.998;10.440;2022-08-20T07:27:49;9.08;;;3.30;;
32106;SDS011;18622;51.998;10.440;2022-08-20T07:30:23;4.53;;;3.30;;
32106;SDS011;18622;51.998;10.440;2022-08-20T07:33:06;3.73;;;3.37;;
32106;SDS011;18622;51.998;10.440;2022-08-20T07:35:34;5.30;;;4.27;;
32106;SDS011;18622;51.998;10.440;2022-08-20T07:38:02;8.57;;;4.40;;
32106;SDS011;18622;51.998;10.440;2022-08-20T07:40:30;8.63;;;4.40;;
32106;SDS011;18622;51.998;10.440;2022-08-20T07:43:00;8.43;;;6.03;;
32106;SDS011;18622;51.998;10.440;2022-08-20T07:45:29;5.10;;;4.60;;
32106;SDS011;18622;51.998;10.440;2022-08-20T07:48:05;6.73;;;5.30;;
32106;SDS011;18622;51.998;10.440;2022-08-20T07:50:36;11.60;;;4.75;;
32106;SDS011;18622;51.998;10.440;2022-08-20T07:53:04;5.20;;;3.80;;
32106;SDS011;18622;51.998;10.440;2022-08-20T07:55:32;9.23;;;5.00;;
32106;SDS011;18622;51.998;10.440;2022-08-20T07:58:10;5.83;;;4.57;;
32106;SDS011;18622;51.998;10.440;2022-08-20T08:00:34;5.13;;;4.10;;
32106;SDS011;18622;51.998;10.440;2022-08-20T08:03:02;17.00;;;4.87;;
32106;SDS011;18622;51.998;10.440;2022-08-20T08:05:36;6.57;;;5.63;;
32106;SDS011;18622;51.998;10.440;2022-08-20T08:08:01;9.63;;;5.42;;
32106;SDS011;18622;51.998;10.440;2022-08-20T08:10:31;10.30;;;5.30;;
32106;SDS011;18622;51.998;10.440;2022-08-20T08:13:01;7.12;;;4.97;;
32106;SDS011;18622;51.998;10.440;2022-08-20T08:15:31;9.80;;;5.12;;
32106;SDS011;18622;51.998;10.440;2022-08-20T08:18:03;6.70;;;5.47;;
32106;SDS011;18622;51.998;10.440;2022-08-20T08:20:38;10.97;;;5.13;;
32106;SDS011;18622;51.998;10.440;2022-08-20T08:23:07;11.25;;;6.10;;
32106;SDS011;18622;51.998;10.440;2022-08-20T08:25:37;7.47;;;5.30;;
32106;SDS011;18622;51.998;10.440;2022-08-20T08:28:10;8.08;;;5.62;;
32106;SDS011;18622;51.998;10.440;2022-08-20T08:30:40;7.87;;;4.10;;
32106;SDS011;18622;51.998;10.440;2022-08-20T08:33:29;6.03;;;5.50;;
32106;SDS011;18622;51.998;10.440;2022-08-20T08:35:58;5.90;;;5.30;;
32106;SDS011;18622;51.998;10.440;2022-08-20T08:38:31;7.30;;;5.53;;
32106;SDS011;18622;51.998;10.440;2022-08-20T08:41:06;7.10;;;5.22;;
32106;SDS011;18622;51.998;10.440;2022-08-20T08:43:48;6.50;;;5.43;;
32106;SDS011;18622;51.998;10.440;2022-08-20T08:46:19;7.83;;;5.60;;
32106;SDS011;18622;51.998;10.440;2022-08-20T08:48:52;8.08;;;4.62;;
32106;SDS011;18622;51.998;10.440;2022-08-20T08:51:44;9.30;;;4.50;;
32106;SDS011;18622;51.998;10.440;2022-08-20T08:54:12;7.03;;;5.17;;
32106;SDS011;18622;51.998;10.440;2022-08-20T08:56:41;8.33;;;5.60;;
32106;SDS011;18622;51.998;10.440;2022-08-20T08:59:09;7.93;;;5.70;;
32106;SDS011;18622;51.998;10.440;2022-08-20T09:01:42;11.33;;;6.10;;
32106;SDS011;18622;51.998;10.440;2022-08-20T09:04:12;8.20;;;6.07;;
32106;SDS011;18622;51.998;10.440;2022-08-20T09:06:41;6.53;;;5.57;;
32106;SDS011;18622;51.998;10.440;2022-08-20T09:09:13;7.05;;;5.60;;
32106;SDS011;18622;51.998;10.440;2022-08-20T09:11:44;9.77;;;5.93;;
32106;SDS011;18622;51.998;10.440;2022-08-20T09:14:14;5.22;;;4.40;;
32106;SDS011;18622;51.998;10.440;2022-08-20T09:16:41;4.97;;;4.30;;
32106;SDS011;18622;51.998;10.440;2022-08-20T09:19:09;7.30;;;5.67;;
32106;SDS011;18622;51.998;10.440;2022-08-20T09:21:37;9.03;;;6.13;;
32106;SDS011;18622;51.998;10.440;2022-08-20T09:24:05;8.07;;;4.80;;
32106;SDS011;18622;51.998;10.440;2022-08-20T09:26:33;7.13;;;5.40;;
32106;SDS011;18622;51.998;10.440;2022-08-20T09:29:01;8.93;;;4.70;;
32106;SDS011;18622;51.998;10.440;2022-08-20T09:31:28;6.87;;;5.13;;
32106;SDS011;18622;51.998;10.440;2022-08-20T09:33:56;10.60;;;4.87;;
32106;SDS011;18622;51.998;10.440;2022-08-20T09:36:24;5.90;;;4.50;;
32106;SDS011;18622;51.998;10.440;2022-08-20T09:38:52;9.13;;;4.55;;
32106;SDS011;18622;51.998;10.440;2022-08-20T09:41:20;6.40;;;4.50;;
32106;SDS011;18622;51.998;10.440;2022-08-20T09:43:48;5.77;;;3.90;;
32106;SDS011;18622;51.998;10.440;2022-08-20T09:46:16;8.90;;;4.03;;
32106;SDS011;18622;51.998;10.440;2022-08-20T09:48:44;6.90;;;4.27;;
32106;SDS011;18622;51.998;10.440;2022-08-20T09:51:12;5.67;;;4.23;;
32106;SDS011;18622;51.998;10.440;2022-08-20T09:53:39;7.00;;;4.53;;
32106;SDS011;18622;51.998;10.440;2022-08-20T09:56:08;4.65;;;4.10;;
32106;SDS011;18622;51.998;10.440;2022-08-20T09:58:37;5.63;;;3.90;;
32106;SDS011;18622;51.998;10.440;2022-08-20T10:01:08;5.20;;;4.20;;
32106;SDS011;18622;51.998;10.440;2022-08-20T10:03:42;8.40;;;4.28;;
32106;SDS011;18622;51.998;10.440;2022-08-20T10:06:14;5.33;;;3.73;;
32106;SDS011;18622;51.998;10.440;2022-08-20T10:08:44;7.85;;;3.40;;
32106;SDS011;18622;51.998;10.440;2022-08-20T10:11:12;7.40;;;3.93;;
32106;SDS011;18622;51.998;10.440;2022-08-20T10:13:40;7.20;;;3.90;;
32106;SDS011;18622;51.998;10.440;2022-08-20T10:16:08;7.17;;;4.37;;
32106;SDS011;18622;51.998;10.440;2022-08-20T10:18:36;10.20;;;5.07;;
32106;SDS011;18622;51.998;10.440;2022-08-20T10:21:07;6.20;;;4.80;;
32106;SDS011;18622;51.998;10.440;2022-08-20T10:23:38;6.70;;;4.97;;
32106;SDS011;18622;51.998;10.440;2022-08-20T10:26:07;4.47;;;4.07;;
32106;SDS011;18622;51.998;10.440;2022-08-20T10:31:16;7.87;;;4.60;;
32106;SDS011;18622;51.998;10.440;2022-08-20T10:33:44;9.57;;;5.60;;
32106;SDS011;18622;51.998;10.440;2022-08-20T10:36:13;6.53;;;5.00;;
32106;SDS011;18622;51.998;10.440;2022-08-20T10:38:42;6.65;;;4.45;;
32106;SDS011;18622;51.998;10.440;2022-08-20T10:41:10;7.70;;;5.90;;
32106;SDS011;18622;51.998;10.440;2022-08-20T10:43:38;8.10;;;4.63;;
32106;SDS011;18622;51.998;10.440;2022-08-20T10:46:06;7.97;;;5.40;;
32106;SDS011;18622;51.998;10.440;2022-08-20T10:48:34;9.90;;;6.23;;
32106;SDS011;18622;51.998;10.440;2022-08-20T10:51:02;5.77;;;5.00;;
32106;SDS011;18622;51.998;10.440;2022-08-20T10:53:30;8.45;;;5.72;;
32106;SDS011;18622;51.998;10.440;2022-08-20T10:55:58;9.40;;;6.53;;
32106;SDS011;18622;51.998;10.440;2022-08-20T10:58:25;7.27;;;5.93;;
32106;SDS011;18622;51.998;10.440;2022-08-20T11:00:53;7.57;;;5.67;;
32106;SDS011;18622;51.998;10.440;2022-08-20T11:03:21;6.20;;;5.50;;
32106;SDS011;18622;51.998;10.440;2022-08-20T11:05:49;6.00;;;5.07;;
32106;SDS011;18622;51.998;10.440;2022-08-20T11:08:17;9.13;;;5.07;;
32106;SDS011;18622;51.998;10.440;2022-08-20T11:10:44;14.17;;;6.23;;
32106;SDS011;18622;51.998;10.440;2022-08-20T11:13:12;9.43;;;5.37;;
32106;SDS011;18622;51.998;10.440;2022-08-20T11:15:41;6.23;;;4.87;;
32106;SDS011;18622;51.998;10.440;2022-08-20T11:18:11;5.63;;;5.00;;
32106;SDS011;18622;51.998;10.440;2022-08-20T11:20:39;7.72;;;5.17;;
32106;SDS011;18622;51.998;10.440;2022-08-20T11:23:07;8.10;;;5.50;;
32106;SDS011;18622;51.998;10.440;2022-08-20T11:25:35;9.07;;;6.03;;
32106;SDS011;18622;51.998;10.440;2022-08-20T11:28:03;6.97;;;6.13;;
32106;SDS011;18622;51.998;10.440;2022-08-20T11:33:01;6.12;;;5.53;;
32106;SDS011;18622;51.998;10.440;2022-08-20T11:35:31;6.70;;;5.37;;
32106;SDS011;18622;51.998;10.440;2022-08-20T11:37:59;5.97;;;5.17;;
32106;SDS011;18622;51.998;10.440;2022-08-20T11:40:28;9.57;;;6.53;;
32106;SDS011;18622;51.998;10.440;2022-08-20T11:42:57;8.93;;;5.50;;
32106;SDS011;18622;51.998;10.440;2022-08-20T11:45:25;7.07;;;5.70;;
32106;SDS011;18622;51.998;10.440;2022-08-20T11:47:52;5.95;;;5.12;;
32106;SDS011;18622;51.998;10.440;2022-08-20T11:50:20;6.60;;;5.85;;
32106;SDS011;18622;51.998;10.440;2022-08-20T11:52:48;5.67;;;5.17;;
32106;SDS011;18622;51.998;10.440;2022-08-20T11:55:16;7.12;;;6.42;;
32106;SDS011;18622;51.998;10.440;2022-08-20T11:57:44;6.70;;;5.97;;
32106;SDS011;18622;51.998;10.440;2022-08-20T12:00:14;7.35;;;5.67;;
32106;SDS011;18622;51.998;10.440;2022-08-20T12:02:43;5.12;;;4.62;;
32106;SDS011;18622;51.998;10.440;2022-08-20T12:05:11;5.90;;;5.12;;
32106;SDS011;18622;51.998;10.440;2022-08-20T12:07:39;5.17;;;4.47;;
32106;SDS011;18622;51.998;10.440;2022-08-20T12:10:08;8.20;;;5.93;;
32106;SDS011;18622;51.998;10.440;2022-08-20T12:12:36;6.78;;;5.50;;
32106;SDS011;18622;51.998;10.440;2022-08-20T12:15:05;9.15;;;5.80;;
32106;SDS011;18622;51.998;10.440;2022-08-20T12:17:34;7.05;;;4.55;;
32106;SDS011;18622;51.998;10.440;2022-08-20T12:20:05;5.67;;;5.00;;
32106;SDS011;18622;51.998;10.440;2022-08-20T12:22:33;6.53;;;4.80;;
32106;SDS011;18622;51.998;10.440;2022-08-20T12:25:02;4.77;;;4.33;;
32106;SDS011;18622;51.998;10.440;2022-08-20T12:27:31;5.23;;;4.70;;
32106;SDS011;18622;51.998;10.440;2022-08-20T12:30:01;6.67;;;4.85;;
32106;SDS011;18622;51.998;10.440;2022-08-20T12:32:30;8.33;;;5.50;;
32106;SDS011;18622;51.998;10.440;2022-08-20T12:37:27;9.10;;;5.10;;
32106;SDS011;18622;51.998;10.440;2022-08-20T12:39:56;5.12;;;4.40;;
32106;SDS011;18622;51.998;10.440;2022-08-20T12:42:26;7.87;;;4.55;;
32106;SDS011;18622;51.998;10.440;2022-08-20T12:44:57;5.07;;;4.57;;
